KFYM/FYM METAR and TAF weather

Enter ICAO airport designator
Station Type Date Time Source
KFYM METAR 2021/02/27 20:55 UTC NOAA

KFYM 272055Z AUTO 23004KT 10SM SCT025 SCT031 BKN080 21/18 A3008 RMK A01


Station Type Date Time Source
KFYM Decoded METAR 2021/02/27 20:55 UTC NOAA

Station name not available
Feb 27, 2021 - 03:55 PM EST / 2021.02.27 2055 UTC
Wind: from the SW (230 degrees) at 5 MPH (4 KT):0
Visibility: 10 mile(s):0
Sky conditions: mostly cloudy
Temperature: 69 F (21 C)
Dew Point: 64 F (18 C)
Relative Humidity: 82%
Pressure (altimeter): 30.08 in. Hg (1018 hPa)
ob: KFYM 272055Z AUTO 23004KT 10SM SCT025 SCT031 BKN080 21/18 A3008 RMK A01
cycle: 21

Station Type Date Time Source
KFYM TAF 2009/08/31 19:45 UTC NOAA

METAR KFYM 311945Z AUTO 01006KT 10SM CLR 26/11 A3009
RMK AO1 T02550111 $

Example: see airport list